Startpagina
METAR-TAF:

METAR-TAF

Vliegvelden :

Abidjan, Ivoorkust

Luchthaven Port Bouet

breedte: 05-15N, lengte: 003-56W, hoogte: 7 m

Actueel weer

Dit bericht is 31 minuten geleden gemaakt, om 04:00 UTC
Wind 5 kt uit het zuidzuidwesten
Temperatuur 28°C
Vochtigheid 84%
Druk 1010 hPa
Zicht: 6000 m
Weinig wolken op 2000 ft

METAR: DIAP 140400Z 21005KT 6000 FEW020 28/25 Q1010 NOSIG

Tijdstip: 04:31 (04:31 UTC)

Verwachting

Dit bericht is 5 uur en het 31 minuten geleden gemaakt, om 23:00 UTC
Verwachting geldig van 14 om 00 UTC tot 15 om 06 UTC
Wind 5 kt uit het zuidzuidwesten
Zicht: 4000 m
Weinig wolken op 1200 ft
Heiigheid
Tijdelijke
van 14 om 05 UTC tot 14 om 08 UTC
Zicht: 2000 m
nevel

TAF: DIAP 132300Z 1400/1506 20005KT 4000 HZ FEW012 TEMPO 1405/1408 2000 BR

Waarnemingen en weersverwachtingen van meer dan 4000 vliegvelden (METAR en TAF).

De beschikbare stations zijn de gele en rode punten op de kaart.

Ga met uw muis naar het station om de naam te zien.

Klik dan om waarnemingen en weersverwachtingen te zien.

kaart wijzigen: klik op de groene knoppen met een zwart kruis om in te zoomen, op de groene knop met een streepje om uit te zoomen of op de groene pijlen voor aangrenzende kaarten.


METAR-TAF: